createdAt,value
2019-06-26T00:01:33.590Z,24.63
2019-06-26T00:04:02.194Z,25.40
2019-06-26T00:06:30.911Z,24.93
2019-06-26T00:08:59.528Z,24.73
2019-06-26T00:11:28.221Z,24.63
2019-06-26T00:13:56.936Z,22.23
2019-06-26T00:16:25.610Z,23.27
2019-06-26T00:18:54.329Z,22.03
2019-06-26T00:21:22.986Z,23.17
2019-06-26T00:23:51.618Z,22.30
2019-06-26T00:26:20.309Z,23.77
2019-06-26T00:28:48.966Z,22.23
2019-06-26T00:31:17.636Z,20.90
2019-06-26T00:33:46.338Z,23.00
2019-06-26T00:36:14.945Z,21.13
2019-06-26T00:38:43.691Z,23.33
2019-06-26T00:41:12.362Z,23.40
2019-06-26T00:43:42.586Z,26.53
2019-06-26T00:46:11.309Z,22.97
2019-06-26T00:48:40.319Z,22.73
2019-06-26T00:51:09.034Z,25.03
2019-06-26T00:53:37.668Z,21.97
2019-06-26T00:56:06.476Z,21.57
2019-06-26T00:58:35.134Z,21.90
2019-06-26T01:01:03.743Z,24.07
2019-06-26T01:03:32.463Z,23.13
2019-06-26T01:06:02.450Z,23.37
2019-06-26T01:08:31.071Z,24.07
2019-06-26T01:10:59.748Z,25.23
2019-06-26T01:13:28.402Z,24.07
2019-06-26T01:15:57.019Z,23.40
2019-06-26T01:18:25.692Z,25.47
2019-06-26T01:20:54.415Z,24.33
2019-06-26T01:23:23.096Z,23.73
2019-06-26T01:25:51.798Z,22.90
2019-06-26T01:28:20.466Z,24.70
2019-06-26T01:30:49.173Z,25.60
2019-06-26T01:33:17.776Z,24.13
2019-06-26T01:35:46.494Z,24.47
2019-06-26T01:38:15.213Z,24.67
2019-06-26T01:40:43.843Z,24.60
2019-06-26T01:43:12.476Z,23.43
2019-06-26T01:45:41.149Z,23.57
2019-06-26T01:48:09.851Z,23.93
2019-06-26T01:50:38.477Z,24.30
2019-06-26T01:53:07.087Z,26.73
2019-06-26T01:55:35.807Z,25.77
2019-06-26T01:58:04.421Z,25.17
2019-06-26T02:00:33.299Z,25.50
2019-06-26T02:03:02.105Z,25.17
2019-06-26T02:05:30.923Z,24.70
2019-06-26T02:07:59.626Z,24.77
2019-06-26T02:10:28.315Z,24.67
2019-06-26T02:12:57.010Z,25.77
2019-06-26T02:15:25.892Z,25.77
2019-06-26T02:17:54.627Z,29.90
2019-06-26T02:20:23.264Z,33.40
2019-06-26T02:22:51.956Z,28.23
2019-06-26T02:25:20.700Z,27.60
2019-06-26T02:27:49.407Z,26.60
2019-06-26T02:30:18.243Z,24.63
2019-06-26T02:32:46.911Z,26.37
2019-06-26T02:35:15.711Z,25.37
2019-06-26T02:37:44.407Z,25.23
2019-06-26T02:40:13.503Z,24.97
2019-06-26T02:42:42.195Z,26.37
2019-06-26T02:45:11.021Z,28.50
2019-06-26T02:47:39.723Z,29.50
2019-06-26T02:50:11.987Z,26.63
2019-06-26T02:52:40.706Z,27.77
2019-06-26T02:55:11.493Z,26.07
2019-06-26T02:57:40.180Z,28.63
2019-06-26T03:00:09.952Z,26.97
2019-06-26T03:02:38.564Z,34.53
2019-06-26T03:05:07.718Z,25.63
2019-06-26T03:07:36.406Z,25.17
2019-06-26T03:10:06.963Z,25.53
2019-06-26T03:12:35.969Z,30.73
2019-06-26T03:15:09.873Z,24.53
2019-06-26T03:17:54.175Z,26.33
2019-06-26T03:20:10.535Z,26.80
2019-06-26T03:22:39.158Z,24.53
2019-06-26T03:25:08.098Z,32.53
2019-06-26T03:27:36.708Z,25.33
2019-06-26T03:30:06.600Z,29.43
2019-06-26T03:32:35.311Z,29.97
2019-06-26T03:35:04.289Z,30.03
2019-06-26T03:37:32.911Z,25.93
2019-06-26T03:40:01.803Z,24.60
2019-06-26T03:42:30.627Z,25.27
2019-06-26T03:44:59.241Z,24.93
2019-06-26T03:47:27.919Z,24.90
2019-06-26T03:49:56.714Z,27.00
2019-06-26T03:52:25.454Z,24.87
2019-06-26T03:54:54.155Z,26.47
2019-06-26T03:57:22.842Z,29.47
2019-06-26T03:59:51.485Z,26.17
2019-06-26T04:02:20.216Z,25.83
2019-06-26T04:04:48.875Z,25.90
2019-06-26T04:07:17.503Z,26.77
2019-06-26T04:09:46.175Z,25.90
2019-06-26T04:12:14.823Z,26.60
2019-06-26T04:14:43.503Z,25.50
2019-06-26T04:17:12.215Z,26.33
2019-06-26T04:19:40.881Z,24.70
2019-06-26T04:22:09.536Z,29.20
2019-06-26T04:24:38.233Z,25.13
2019-06-26T04:27:06.886Z,24.03
2019-06-26T04:29:35.594Z,23.37
2019-06-26T04:32:04.264Z,23.97
2019-06-26T04:34:33.867Z,24.80
2019-06-26T04:37:02.555Z,25.30
2019-06-26T04:39:31.263Z,24.30
2019-06-26T04:41:59.900Z,25.63
2019-06-26T04:44:28.514Z,22.70
2019-06-26T04:46:58.681Z,24.53
2019-06-26T04:49:27.354Z,27.80
2019-06-26T04:51:56.038Z,27.13
2019-06-26T04:54:24.668Z,24.03
2019-06-26T04:56:53.312Z,22.77
2019-06-26T04:59:21.992Z,25.07
2019-06-26T05:01:50.687Z,24.67
2019-06-26T05:04:19.297Z,23.57
2019-06-26T05:06:48.081Z,27.40
2019-06-26T05:09:16.844Z,23.07
2019-06-26T05:11:45.671Z,27.87
2019-06-26T05:14:14.362Z,25.57
2019-06-26T05:16:43.012Z,25.03
2019-06-26T05:19:14.483Z,22.90
2019-06-26T05:21:43.087Z,24.27
2019-06-26T05:24:11.701Z,26.53
2019-06-26T05:26:40.404Z,23.03
2019-06-26T05:29:09.010Z,24.90
2019-06-26T05:31:37.786Z,20.23
2019-06-26T05:34:09.875Z,23.63
2019-06-26T05:36:36.951Z,27.17
2019-06-26T05:39:06.996Z,20.50
2019-06-26T05:41:35.698Z,24.87
2019-06-26T05:44:05.326Z,20.87
2019-06-26T05:46:33.983Z,22.03
2019-06-26T05:49:02.657Z,21.10
2019-06-26T05:51:31.368Z,21.30
2019-06-26T05:54:00.151Z,22.00
2019-06-26T05:56:28.897Z,22.93
2019-06-26T05:58:57.838Z,25.97
2019-06-26T06:01:26.471Z,18.80
2019-06-26T06:03:55.146Z,21.63
2019-06-26T06:06:23.903Z,21.97
2019-06-26T06:08:52.623Z,24.07
2019-06-26T06:11:21.271Z,18.00
2019-06-26T06:13:49.987Z,18.23
2019-06-26T06:16:18.779Z,17.73
2019-06-26T06:18:47.455Z,17.37
2019-06-26T06:21:16.137Z,15.40
2019-06-26T06:23:44.808Z,17.53
2019-06-26T06:26:13.413Z,21.23
2019-06-26T06:28:42.174Z,17.53
2019-06-26T06:31:10.962Z,18.30
2019-06-26T06:33:39.685Z,16.37
2019-06-26T06:36:09.712Z,22.00
2019-06-26T06:38:40.346Z,17.27
2019-06-26T06:41:09.048Z,16.30
2019-06-26T06:43:37.718Z,18.73
2019-06-26T06:46:06.475Z,17.30
2019-06-26T06:48:35.216Z,17.77
2019-06-26T06:51:05.110Z,19.17
2019-06-26T06:53:33.808Z,18.07
2019-06-26T06:56:02.480Z,17.02
2019-06-26T06:58:31.254Z,17.05
2019-06-26T07:00:59.866Z,16.73
2019-06-26T07:03:28.500Z,19.90
2019-06-26T07:05:57.175Z,15.72
2019-06-26T07:08:25.846Z,16.05
2019-06-26T07:10:54.468Z,14.85
2019-06-26T07:13:23.255Z,15.95
2019-06-26T07:15:53.058Z,15.25
2019-06-26T07:18:21.729Z,15.60
2019-06-26T07:20:50.419Z,18.00
2019-06-26T07:23:19.062Z,18.30
2019-06-26T07:25:47.845Z,18.48
2019-06-26T07:28:16.541Z,17.05
2019-06-26T07:30:46.650Z,17.37
2019-06-26T07:33:15.405Z,17.35
2019-06-26T07:35:44.136Z,18.50
2019-06-26T07:38:12.751Z,15.10
2019-06-26T07:40:41.389Z,14.15
2019-06-26T07:43:10.070Z,13.03
2019-06-26T07:45:38.759Z,12.23
2019-06-26T07:48:07.470Z,12.85
2019-06-26T07:50:36.069Z,18.67
2019-06-26T07:53:04.978Z,11.78
2019-06-26T07:55:33.723Z,17.80
2019-06-26T07:58:02.392Z,13.70
2019-06-26T08:00:31.868Z,13.75
2019-06-26T08:03:04.091Z,14.73
2019-06-26T08:05:31.046Z,16.37
2019-06-26T08:07:59.695Z,12.35
2019-06-26T08:10:28.467Z,14.20
2019-06-26T08:12:57.239Z,13.80
2019-06-26T08:15:25.922Z,11.53
2019-06-26T08:18:00.574Z,13.18
2019-06-26T08:20:24.886Z,11.95
2019-06-26T08:22:53.537Z,12.58
2019-06-26T08:25:22.237Z,12.65
2019-06-26T08:27:50.871Z,11.57
2019-06-26T08:30:19.901Z,12.55
2019-06-26T08:32:48.684Z,15.72
2019-06-26T08:35:17.443Z,11.85
2019-06-26T08:37:46.149Z,12.43
2019-06-26T08:40:15.172Z,11.48
2019-06-26T08:42:43.851Z,13.85
2019-06-26T08:45:13.059Z,14.90
2019-06-26T08:47:41.680Z,12.25
2019-06-26T08:50:12.028Z,12.40
2019-06-26T08:52:40.739Z,17.27
2019-06-26T08:55:09.627Z,12.13
2019-06-26T08:57:38.295Z,12.47
2019-06-26T09:00:09.421Z,14.33
2019-06-26T09:02:38.130Z,13.68
2019-06-26T09:05:07.420Z,12.53
2019-06-26T09:07:36.190Z,13.50
2019-06-26T09:10:09.407Z,11.57
2019-06-26T09:12:38.080Z,13.10
2019-06-26T09:15:07.591Z,12.10
2019-06-26T09:17:36.572Z,12.00
2019-06-26T09:20:06.984Z,12.90
2019-06-26T09:22:35.664Z,12.98
2019-06-26T09:25:20.860Z,13.43
2019-06-26T09:27:37.486Z,12.37
2019-06-26T09:30:09.358Z,12.43
2019-06-26T09:32:39.659Z,12.70
2019-06-26T09:35:09.302Z,11.15
2019-06-26T09:37:38.021Z,12.73
2019-06-26T09:40:07.240Z,13.75
2019-06-26T09:42:35.914Z,12.53
2019-06-26T09:45:06.766Z,12.68
2019-06-26T09:47:35.458Z,11.22
2019-06-26T09:50:08.954Z,11.65
2019-06-26T09:52:37.632Z,13.68
2019-06-26T09:55:06.941Z,13.03
2019-06-26T09:57:35.751Z,14.38
2019-06-26T10:00:09.590Z,18.37
2019-06-26T10:02:38.231Z,11.68
2019-06-26T10:05:07.191Z,11.43
2019-06-26T10:07:35.807Z,13.03
2019-06-26T10:10:05.138Z,12.18
2019-06-26T10:12:33.742Z,11.93
2019-06-26T10:15:02.372Z,12.07
2019-06-26T10:17:31.040Z,15.28
2019-06-26T10:19:59.680Z,12.23
2019-06-26T10:22:28.360Z,12.00
2019-06-26T10:24:56.997Z,14.58
2019-06-26T10:27:25.679Z,11.53
2019-06-26T10:29:54.382Z,13.55
2019-06-26T10:32:22.986Z,14.55
2019-06-26T10:34:51.590Z,13.32
2019-06-26T10:37:20.214Z,12.10
2019-06-26T10:39:48.842Z,11.88
2019-06-26T10:42:17.654Z,11.80
2019-06-26T10:44:46.290Z,11.90
2019-06-26T10:47:14.899Z,14.95
2019-06-26T10:49:43.608Z,16.15
2019-06-26T10:52:12.303Z,11.97
2019-06-26T10:54:44.173Z,14.87
2019-06-26T10:57:11.406Z,14.18
2019-06-26T10:59:40.177Z,16.93
2019-06-26T11:02:09.544Z,11.15
2019-06-26T11:04:38.187Z,11.85
2019-06-26T11:07:06.823Z,11.12
2019-06-26T11:09:35.527Z,10.65
2019-06-26T11:12:04.205Z,10.75
2019-06-26T11:14:32.932Z,11.70
2019-06-26T11:17:01.649Z,10.13
2019-06-26T11:19:43.462Z,11.12
2019-06-26T11:22:00.734Z,11.18
2019-06-26T11:24:29.485Z,11.22
2019-06-26T11:26:58.167Z,11.83
2019-06-26T11:29:26.882Z,11.30
2019-06-26T11:31:55.555Z,10.88
2019-06-26T11:34:24.268Z,13.60
2019-06-26T11:37:03.058Z,12.58
2019-06-26T11:39:23.305Z,11.50
2019-06-26T11:41:52.038Z,11.35
2019-06-26T11:44:20.727Z,11.05
2019-06-26T11:46:49.630Z,11.90
2019-06-26T11:49:18.272Z,12.60
2019-06-26T11:51:46.911Z,14.55
2019-06-26T11:54:15.586Z,12.03
2019-06-26T11:56:44.203Z,12.43
2019-06-26T11:59:12.837Z,11.28
2019-06-26T12:01:41.539Z,12.10
2019-06-26T12:04:10.223Z,13.30
2019-06-26T12:06:38.842Z,16.82
2019-06-26T12:09:08.767Z,14.83
2019-06-26T12:11:37.499Z,11.33
2019-06-26T12:14:06.218Z,14.47
2019-06-26T12:16:34.900Z,16.05
2019-06-26T12:19:03.643Z,14.75
2019-06-26T12:21:32.350Z,11.95
2019-06-26T12:24:01.067Z,11.05
2019-06-26T12:26:29.701Z,13.18
2019-06-26T12:28:58.312Z,10.72
2019-06-26T12:31:26.985Z,11.63
2019-06-26T12:33:55.647Z,12.28
2019-06-26T12:36:24.258Z,12.47
2019-06-26T12:38:52.961Z,12.30
2019-06-26T12:41:21.668Z,14.60
2019-06-26T12:43:50.362Z,10.35
2019-06-26T12:46:19.167Z,11.57
2019-06-26T12:48:47.910Z,13.22
2019-06-26T12:51:16.644Z,10.38
2019-06-26T12:53:45.502Z,10.20
2019-06-26T12:56:14.124Z,14.15
2019-06-26T12:58:42.831Z,9.70
2019-06-26T13:01:11.445Z,11.22
2019-06-26T13:03:40.128Z,9.05
2019-06-26T13:06:08.857Z,7.87
2019-06-26T13:08:37.578Z,8.18
2019-06-26T13:11:06.205Z,6.72
2019-06-26T13:13:34.805Z,10.95
2019-06-26T13:16:03.528Z,7.55
2019-06-26T13:18:32.202Z,10.38
2019-06-26T13:21:04.736Z,12.03
2019-06-26T13:23:31.292Z,8.68
2019-06-26T13:25:59.975Z,7.85
2019-06-26T13:28:28.758Z,9.28
2019-06-26T13:30:57.447Z,7.72
2019-06-26T13:33:26.107Z,7.70
2019-06-26T13:35:54.810Z,7.87
2019-06-26T13:38:26.976Z,7.97
2019-06-26T13:40:53.929Z,7.97
2019-06-26T13:43:22.700Z,7.87
2019-06-26T13:45:51.491Z,7.72
2019-06-26T13:48:20.195Z,7.92
2019-06-26T13:50:48.882Z,9.73
2019-06-26T13:53:17.591Z,8.20
2019-06-26T13:55:46.321Z,9.28
2019-06-26T13:58:15.007Z,9.68
2019-06-26T14:00:43.753Z,11.20
2019-06-26T14:03:12.459Z,9.65
2019-06-26T14:05:41.062Z,10.88
2019-06-26T14:08:09.835Z,11.28
2019-06-26T14:10:38.460Z,11.65
2019-06-26T14:13:07.187Z,11.00
2019-06-26T14:15:35.790Z,11.28
2019-06-26T14:18:04.703Z,15.15
2019-06-26T14:20:33.399Z,12.10
2019-06-26T14:23:02.361Z,13.03
2019-06-26T14:25:31.013Z,11.80
2019-06-26T14:27:59.693Z,12.73
2019-06-26T14:30:28.357Z,13.32
2019-06-26T14:32:57.070Z,12.73
2019-06-26T14:35:25.794Z,12.55
2019-06-26T14:37:54.546Z,12.07
2019-06-26T14:40:23.351Z,13.45
2019-06-26T14:42:52.099Z,13.08
2019-06-26T14:45:20.815Z,11.35
2019-06-26T14:47:49.575Z,11.48
2019-06-26T14:50:18.746Z,13.98
2019-06-26T14:52:47.499Z,14.25
2019-06-26T14:55:16.448Z,13.20
2019-06-26T14:57:45.200Z,12.20
2019-06-26T15:00:15.754Z,11.75
2019-06-26T15:02:44.467Z,11.48
2019-06-26T15:05:14.524Z,12.80
2019-06-26T15:07:43.311Z,12.45
2019-06-26T15:10:12.137Z,13.20
2019-06-26T15:12:40.896Z,12.78
2019-06-26T15:15:12.282Z,15.40
2019-06-26T15:17:41.106Z,12.73
2019-06-26T15:20:10.150Z,14.43
2019-06-26T15:22:38.895Z,14.55
2019-06-26T15:25:08.114Z,12.88
2019-06-26T15:27:39.147Z,12.98
2019-06-26T15:30:08.674Z,12.93
2019-06-26T15:32:37.419Z,12.73
2019-06-26T15:35:10.025Z,14.95
2019-06-26T15:37:38.780Z,12.78
2019-06-26T15:40:07.947Z,13.05
2019-06-26T15:42:36.704Z,19.80
2019-06-26T15:45:07.397Z,14.55
2019-06-26T15:47:36.254Z,16.70
2019-06-26T15:50:10.811Z,13.10
2019-06-26T15:52:39.144Z,13.75
2019-06-26T15:55:08.396Z,13.50
2019-06-26T15:57:37.101Z,18.23
2019-06-26T16:00:08.095Z,13.00
2019-06-26T16:02:36.838Z,13.78
2019-06-26T16:05:07.333Z,14.58
2019-06-26T16:07:36.107Z,12.75
2019-06-26T16:10:06.539Z,14.47
2019-06-26T16:12:35.291Z,14.83
2019-06-26T16:15:05.444Z,14.55
2019-06-26T16:17:44.771Z,14.25
2019-06-26T16:20:13.879Z,14.80
2019-06-26T16:22:43.448Z,16.52
2019-06-26T16:25:13.667Z,14.18
2019-06-26T16:27:42.427Z,13.48
2019-06-26T16:30:13.312Z,13.30
2019-06-26T16:32:42.088Z,13.98
2019-06-26T16:35:12.328Z,15.28
2019-06-26T16:37:41.393Z,14.83
2019-06-26T16:40:10.343Z,15.32
2019-06-26T16:42:39.152Z,15.85
2019-06-26T16:45:08.518Z,17.27
2019-06-26T16:47:37.237Z,14.20
2019-06-26T16:50:07.363Z,15.58
2019-06-26T16:52:48.550Z,14.18
2019-06-26T16:55:07.973Z,15.10
2019-06-26T16:57:36.721Z,34.92
2019-06-26T17:00:10.338Z,13.65
2019-06-26T17:02:39.333Z,13.08
2019-06-26T17:05:08.561Z,13.95
2019-06-26T17:07:37.341Z,12.88
2019-06-26T17:10:09.956Z,14.25
2019-06-26T17:12:38.770Z,17.17
2019-06-26T17:15:08.392Z,13.60
2019-06-26T17:17:37.150Z,15.93
2019-06-26T17:20:07.200Z,13.60
2019-06-26T17:22:36.002Z,13.25
2019-06-26T17:25:05.970Z,13.60
2019-06-26T17:27:34.782Z,23.27
2019-06-26T17:30:05.371Z,18.25
2019-06-26T17:32:34.190Z,19.02
2019-06-26T17:35:02.892Z,16.57
2019-06-26T17:37:31.707Z,16.00
2019-06-26T17:40:00.433Z,13.70
2019-06-26T17:42:29.256Z,12.28
2019-06-26T17:44:58.062Z,13.55
2019-06-26T17:47:26.788Z,16.12
2019-06-26T17:49:55.611Z,13.58
2019-06-26T17:52:24.353Z,20.27
2019-06-26T17:54:53.178Z,14.45
2019-06-26T17:57:21.891Z,14.07
2019-06-26T17:59:50.715Z,14.03
2019-06-26T18:02:19.471Z,15.20
2019-06-26T18:04:48.300Z,15.45
2019-06-26T18:07:17.113Z,34.92
2019-06-26T18:09:45.904Z,13.55
2019-06-26T18:12:14.668Z,21.20
2019-06-26T18:14:43.517Z,18.12
2019-06-26T18:17:22.188Z,27.05
2019-06-26T18:19:42.738Z,16.17
2019-06-26T18:22:11.502Z,19.42
2019-06-26T18:24:40.269Z,17.37
2019-06-26T18:27:09.016Z,15.55
2019-06-26T18:29:37.809Z,20.45
2019-06-26T18:32:06.696Z,19.20
2019-06-26T18:34:35.357Z,27.60
2019-06-26T18:37:04.195Z,24.72
2019-06-26T18:39:33.019Z,26.77
2019-06-26T18:42:01.736Z,38.20
2019-06-26T18:44:30.527Z,24.95
2019-06-26T18:46:59.336Z,20.08
2019-06-26T18:49:28.128Z,16.73
2019-06-26T18:51:56.843Z,22.80
2019-06-26T18:54:25.644Z,20.43
2019-06-26T18:56:54.425Z,45.25
2019-06-26T18:59:23.256Z,38.28
2019-06-26T19:01:51.955Z,32.90
2019-06-26T19:04:20.703Z,23.12
2019-06-26T19:06:49.456Z,18.07
2019-06-26T19:09:18.244Z,18.27
2019-06-26T19:11:47.088Z,18.55
2019-06-26T19:14:15.879Z,18.17
2019-06-26T19:16:44.657Z,26.17
2019-06-26T19:19:15.340Z,32.45
2019-06-26T19:21:44.092Z,41.15
2019-06-26T19:24:12.924Z,31.68
2019-06-26T19:27:01.021Z,30.02
2019-06-26T19:29:29.766Z,23.80
2019-06-26T19:31:58.573Z,20.62
2019-06-26T19:34:27.316Z,19.10
2019-06-26T19:36:56.129Z,23.12
2019-06-26T19:39:24.940Z,21.25
2019-06-26T19:41:53.682Z,20.02
2019-06-26T19:44:22.504Z,20.90
2019-06-26T19:46:51.222Z,18.42
2019-06-26T19:49:20.039Z,20.00
2019-06-26T19:51:48.771Z,20.00
2019-06-26T19:54:26.965Z,19.35
2019-06-26T19:56:47.978Z,20.60
2019-06-26T19:59:16.699Z,22.37
2019-06-26T20:01:45.471Z,20.02
2019-06-26T20:04:14.252Z,20.20
2019-06-26T20:06:43.023Z,22.55
2019-06-26T20:09:11.845Z,37.98
2019-06-26T20:11:40.697Z,33.40
2019-06-26T20:14:09.406Z,25.40
2019-06-26T20:16:38.187Z,21.65
2019-06-26T20:19:06.937Z,29.07
2019-06-26T20:21:35.757Z,31.20
2019-06-26T20:24:04.540Z,32.00
2019-06-26T20:26:33.325Z,27.98
2019-06-26T20:29:02.055Z,28.73
2019-06-26T20:31:30.775Z,22.13
2019-06-26T20:33:59.619Z,20.80
2019-06-26T20:36:28.347Z,22.55
2019-06-26T20:38:57.091Z,32.28
2019-06-26T20:41:26.014Z,33.33
2019-06-26T20:43:54.767Z,42.58
2019-06-26T20:46:23.559Z,31.68
2019-06-26T20:48:53.831Z,37.78
2019-06-26T20:51:22.575Z,27.27
2019-06-26T20:53:51.338Z,35.48
2019-06-26T20:56:20.085Z,34.70
2019-06-26T20:58:48.849Z,25.68
2019-06-26T21:01:17.553Z,23.98
2019-06-26T21:03:46.419Z,21.70
2019-06-26T21:06:15.115Z,21.15
2019-06-26T21:08:43.875Z,20.52
2019-06-26T21:11:15.637Z,21.05
2019-06-26T21:13:43.005Z,21.05
2019-06-26T21:16:11.763Z,21.25
2019-06-26T21:18:40.538Z,24.80
2019-06-26T21:21:09.348Z,27.45
2019-06-26T21:23:38.085Z,25.32
2019-06-26T21:26:06.869Z,21.57
2019-06-26T21:28:35.586Z,21.97
2019-06-26T21:31:04.393Z,27.80
2019-06-26T21:33:33.144Z,28.63
2019-06-26T21:36:01.866Z,27.60
2019-06-26T21:38:30.579Z,30.37
2019-06-26T21:40:59.329Z,26.03
2019-06-26T21:43:28.040Z,32.17
2019-06-26T21:45:56.803Z,25.35
2019-06-26T21:48:25.592Z,28.57
2019-06-26T21:50:54.346Z,28.57
2019-06-26T21:53:23.063Z,31.80
2019-06-26T21:55:51.814Z,26.57
2019-06-26T21:58:20.656Z,26.23
2019-06-26T22:00:49.474Z,25.67
2019-06-26T22:03:18.288Z,25.47
2019-06-26T22:05:47.120Z,27.53
2019-06-26T22:08:15.968Z,28.93
2019-06-26T22:10:44.748Z,26.83
2019-06-26T22:13:13.501Z,26.70
2019-06-26T22:15:42.217Z,26.00
2019-06-26T22:18:11.036Z,27.47
2019-06-26T22:20:39.755Z,26.07
2019-06-26T22:23:08.596Z,25.17
2019-06-26T22:25:50.282Z,23.43
2019-06-26T22:28:07.793Z,25.67
2019-06-26T22:30:36.499Z,25.63
2019-06-26T22:33:05.355Z,26.43
2019-06-26T22:35:34.119Z,25.30
2019-06-26T22:38:02.845Z,24.03
2019-06-26T22:40:31.615Z,24.03
2019-06-26T22:43:00.347Z,25.67
2019-06-26T22:45:29.160Z,24.83
2019-06-26T22:47:57.984Z,26.43
2019-06-26T22:50:26.707Z,25.03
2019-06-26T22:52:55.425Z,25.93
2019-06-26T22:55:24.176Z,24.83
2019-06-26T22:57:53.001Z,22.83
2019-06-26T23:00:21.865Z,23.57
2019-06-26T23:02:50.636Z,24.03
2019-06-26T23:05:19.393Z,24.03
2019-06-26T23:07:48.133Z,23.97
2019-06-26T23:10:17.187Z,28.00
2019-06-26T23:12:45.904Z,23.87
2019-06-26T23:15:15.072Z,23.43
2019-06-26T23:17:43.801Z,22.87
2019-06-26T23:20:12.620Z,21.47
2019-06-26T23:22:41.398Z,19.20
2019-06-26T23:25:10.191Z,21.57
2019-06-26T23:27:38.861Z,21.23
2019-06-26T23:30:21.411Z,19.50
2019-06-26T23:32:49.798Z,21.73
2019-06-26T23:35:18.403Z,20.90
2019-06-26T23:37:47.056Z,21.87
2019-06-26T23:40:16.103Z,20.10
2019-06-26T23:42:44.801Z,19.73
2019-06-26T23:45:13.400Z,21.07
2019-06-26T23:47:41.964Z,19.63
2019-06-26T23:50:10.677Z,20.57
2019-06-26T23:52:39.420Z,20.63
2019-06-26T23:55:08.273Z,21.23
2019-06-26T23:57:44.270Z,22.23
